createdAt,value
2023-02-03T00:05:18.198Z,3.55
2023-02-03T00:12:20.225Z,4.22
2023-02-03T00:19:22.140Z,3.05
2023-02-03T00:26:26.152Z,3.25
2023-02-03T00:33:28.108Z,3.97
2023-02-03T00:40:30.241Z,3.40
2023-02-03T00:47:32.163Z,3.45
2023-02-03T00:54:34.216Z,3.20
2023-02-03T01:01:36.699Z,3.20
2023-02-03T01:08:38.716Z,3.33
2023-02-03T01:15:47.988Z,2.67
2023-02-03T01:22:49.938Z,2.67
2023-02-03T01:29:52.063Z,3.05
2023-02-03T01:36:54.029Z,2.40
2023-02-03T01:43:58.331Z,2.72
2023-02-03T01:51:04.568Z,3.35
2023-02-03T01:58:13.850Z,2.88
2023-02-03T02:05:36.052Z,2.80
2023-02-03T02:12:38.053Z,2.72
2023-02-03T02:20:02.797Z,2.80
2023-02-03T02:27:10.388Z,2.85
2023-02-03T02:34:17.472Z,2.85
2023-02-03T02:41:49.895Z,2.92
2023-02-03T02:49:05.456Z,3.42
2023-02-03T02:56:10.227Z,3.08
2023-02-03T03:03:18.477Z,2.70
2023-02-03T03:10:24.817Z,2.78
2023-02-03T03:17:29.146Z,3.15
2023-02-03T03:24:37.383Z,2.90
2023-02-03T03:31:40.749Z,3.20
2023-02-03T03:38:54.089Z,3.20
2023-02-03T03:46:08.667Z,3.13
2023-02-03T03:53:10.894Z,3.10
2023-02-03T04:00:15.838Z,3.20
2023-02-03T04:07:17.840Z,3.08
2023-02-03T04:14:19.756Z,3.35
2023-02-03T04:21:22.004Z,3.67
2023-02-03T04:28:23.886Z,4.45
2023-02-03T04:35:26.152Z,3.13
2023-02-03T04:42:28.099Z,2.67
2023-02-03T04:49:29.924Z,3.30
2023-02-03T04:56:31.901Z,3.70
2023-02-03T05:03:33.832Z,3.03
2023-02-03T05:10:35.779Z,4.35
2023-02-03T05:17:40.165Z,4.20
2023-02-03T05:24:42.121Z,4.60
2023-02-03T05:31:44.090Z,4.00
2023-02-03T05:38:46.203Z,3.63
2023-02-03T05:45:48.156Z,8.48
2023-02-03T05:52:50.331Z,8.00
2023-02-03T05:59:52.291Z,5.43
2023-02-03T06:06:54.245Z,4.90
2023-02-03T06:13:58.772Z,12.48
2023-02-03T06:21:00.674Z,10.55
2023-02-03T06:28:02.718Z,10.65
2023-02-03T06:35:04.819Z,9.07
2023-02-03T06:42:06.955Z,15.35
2023-02-03T06:49:08.868Z,7.60
2023-02-03T06:56:10.869Z,4.60
2023-02-03T07:03:12.823Z,5.35
2023-02-03T07:10:14.825Z,6.15
2023-02-03T07:17:16.736Z,5.93
2023-02-03T07:24:18.742Z,14.68
2023-02-03T07:31:20.796Z,9.23
2023-02-03T07:38:22.963Z,7.10
2023-02-03T07:45:25.057Z,5.47
2023-02-03T07:52:27.051Z,5.43
2023-02-03T07:59:28.867Z,4.93
2023-02-03T08:06:30.778Z,5.20
2023-02-03T08:13:32.904Z,4.43
2023-02-03T08:20:34.781Z,5.40
2023-02-03T08:27:36.859Z,5.75
2023-02-03T08:34:38.936Z,7.22
2023-02-03T08:41:40.852Z,5.43
2023-02-03T08:48:42.824Z,5.55
2023-02-03T08:55:44.852Z,5.43
2023-02-03T09:02:46.836Z,5.15
2023-02-03T09:09:48.883Z,4.55
2023-02-03T09:16:50.917Z,5.28
2023-02-03T09:23:52.874Z,6.20
2023-02-03T09:30:54.839Z,5.60
2023-02-03T09:37:56.744Z,5.65
2023-02-03T09:45:21.825Z,4.88
2023-02-03T09:52:26.560Z,5.60
2023-02-03T09:59:30.692Z,6.15
2023-02-03T10:06:45.242Z,4.60
2023-02-03T10:13:53.096Z,5.72
2023-02-03T10:20:58.620Z,6.05
2023-02-03T10:28:04.007Z,6.07
2023-02-03T10:35:12.149Z,6.50
2023-02-03T10:42:14.608Z,6.35
2023-02-03T10:49:16.705Z,5.60
2023-02-03T10:56:23.350Z,6.57
2023-02-03T11:03:28.925Z,6.10
2023-02-03T11:10:36.848Z,5.93
2023-02-03T11:17:44.215Z,6.30
2023-02-03T11:24:46.135Z,6.38
2023-02-03T11:31:50.347Z,6.53
2023-02-03T11:38:52.381Z,5.75
2023-02-03T11:45:54.567Z,5.70
2023-02-03T11:53:07.050Z,4.80
2023-02-03T12:00:34.982Z,5.53
2023-02-03T12:07:46.885Z,4.57
2023-02-03T12:14:57.945Z,4.90
2023-02-03T12:22:10.221Z,3.53
2023-02-03T12:29:17.287Z,4.18
2023-02-03T12:36:24.969Z,3.95
2023-02-03T12:43:50.920Z,3.60
2023-02-03T12:50:58.241Z,3.50
2023-02-03T12:58:11.350Z,3.80
2023-02-03T13:05:23.961Z,3.92
2023-02-03T13:12:32.473Z,4.20
2023-02-03T13:19:45.991Z,3.72
2023-02-03T13:27:03.344Z,4.00
2023-02-03T13:34:29.423Z,4.05
2023-02-03T13:41:45.496Z,4.43
2023-02-03T13:48:47.745Z,4.00
2023-02-03T13:56:04.228Z,4.82
2023-02-03T14:03:17.184Z,4.05
2023-02-03T14:10:24.275Z,5.40
2023-02-03T14:17:54.819Z,5.53
2023-02-03T14:24:58.710Z,3.80
2023-02-03T14:32:05.312Z,4.28
2023-02-03T14:39:22.717Z,4.53
2023-02-03T14:46:30.950Z,3.97
2023-02-03T14:53:54.128Z,4.22
2023-02-03T15:00:59.836Z,4.30
2023-02-03T15:08:03.603Z,4.47
2023-02-03T15:15:22.046Z,4.40
2023-02-03T15:22:30.916Z,4.07
2023-02-03T15:29:34.201Z,4.23
2023-02-03T15:36:44.866Z,4.28
2023-02-03T15:43:47.928Z,4.43
2023-02-03T15:51:16.718Z,4.97
2023-02-03T15:58:29.532Z,4.60
2023-02-03T16:05:37.671Z,5.00
2023-02-03T16:12:41.707Z,5.15
2023-02-03T16:19:43.939Z,5.40
2023-02-03T16:26:45.900Z,5.38
2023-02-03T16:34:09.694Z,6.20
2023-02-03T16:41:35.755Z,4.72
2023-02-03T16:48:56.369Z,5.03
2023-02-03T16:56:01.307Z,5.25
2023-02-03T17:03:06.426Z,5.85
2023-02-03T17:10:09.207Z,5.72
2023-02-03T17:17:11.373Z,4.80
2023-02-03T17:24:14.472Z,5.63
2023-02-03T17:31:18.884Z,5.88
2023-02-03T17:38:22.432Z,5.05
2023-02-03T18:00:07.522Z,5.33
2023-02-03T18:07:10.117Z,5.38
2023-02-03T18:14:17.242Z,5.18
2023-02-03T18:21:20.813Z,6.68
2023-02-03T18:28:24.232Z,6.53
2023-02-03T18:35:26.521Z,6.07
2023-02-03T18:42:29.266Z,5.75
2023-02-03T18:49:32.100Z,6.03
2023-02-03T18:56:38.418Z,5.57
2023-02-03T19:03:41.413Z,5.53
2023-02-03T19:10:44.330Z,5.20
2023-02-03T19:17:47.513Z,6.10
2023-02-03T19:24:50.400Z,5.55
2023-02-03T19:31:53.258Z,4.97
2023-02-03T19:38:56.639Z,5.32
2023-02-03T19:46:05.245Z,5.88
2023-02-03T19:53:10.346Z,6.47
2023-02-03T20:00:14.963Z,5.60
2023-02-03T20:07:18.865Z,5.53
2023-02-03T20:14:25.075Z,4.95
2023-02-03T20:21:28.130Z,5.22
2023-02-03T20:28:34.720Z,5.50
2023-02-03T20:35:39.381Z,5.13
2023-02-03T20:42:49.464Z,5.07
2023-02-03T20:49:57.601Z,5.03
2023-02-03T20:57:03.938Z,5.30
2023-02-03T21:04:37.607Z,4.68
2023-02-03T21:11:40.940Z,5.50
2023-02-03T21:18:57.750Z,5.05
2023-02-03T21:26:01.799Z,4.72
2023-02-03T21:33:37.146Z,5.60
2023-02-03T21:40:39.752Z,5.57
2023-02-03T21:47:46.432Z,5.90
2023-02-03T21:54:49.161Z,6.07
2023-02-03T22:01:53.362Z,5.78
2023-02-03T22:09:02.679Z,6.00
2023-02-03T22:16:05.354Z,6.25
2023-02-03T22:23:10.448Z,5.78
2023-02-03T22:30:16.380Z,6.57
2023-02-03T22:37:18.364Z,6.22
2023-02-03T22:44:20.506Z,5.50
2023-02-03T22:51:22.532Z,6.28
2023-02-03T22:58:24.664Z,5.72
2023-02-03T23:05:26.852Z,4.88
2023-02-03T23:12:28.968Z,5.47
2023-02-03T23:19:31.023Z,5.25
2023-02-03T23:26:33.225Z,5.50
2023-02-03T23:33:35.387Z,5.13
2023-02-03T23:40:37.505Z,5.18
2023-02-03T23:47:40.992Z,5.30
2023-02-03T23:54:42.924Z,4.07
